Time;durP1;ratioP1;P1;durP2;ratioP2;P2;SDS_P1;SDS_P2;PMS_P1;PMS_P2;Temp;Humidity;BMP_temperature;BMP_pressure;BME280_temperature;BME280_humidity;BME280_pressure;Samples;Min_cycle;Max_cycle;Signal;HPM_P1;HPM_P2
2022/08/29 00:00:08;;;;;;;19.73;7.78;;;;;;;26.07;58.57;100191.22;5052436;28;20021;-67
2022/08/29 00:02:34;;;;;;;24.52;7.70;;;;;;;26.02;56.73;100188.72;5050466;28;20103;-70
2022/08/29 00:04:59;;;;;;;19.15;7.88;;;;;;;26.26;57.45;100212.69;5052491;28;20545;-66
2022/08/29 00:07:25;;;;;;;17.90;7.47;;;;;;;26.14;56.87;100198.06;5052074;28;20033;-71
2022/08/29 00:09:50;;;;;;;22.75;7.13;;;;;;;26.20;57.86;100223.47;5052736;28;20131;-70
2022/08/29 00:12:16;;;;;;;19.90;8.02;;;;;;;26.20;58.26;100219.03;5053008;28;20107;-70
2022/08/29 00:14:41;;;;;;;16.63;7.22;;;;;;;25.99;56.51;100215.25;5052432;28;20053;-71
2022/08/29 00:17:07;;;;;;;15.90;7.45;;;;;;;25.98;58.13;100232.91;5052410;28;20047;-68
2022/08/29 00:19:32;;;;;;;14.90;7.13;;;;;;;25.95;58.77;100240.06;5052365;28;20135;-67
2022/08/29 00:21:58;;;;;;;17.75;7.80;;;;;;;25.86;59.53;100245.63;5052439;28;20028;-71
2022/08/29 00:24:23;;;;;;;16.48;8.07;;;;;;;25.74;59.97;100245.09;5052395;28;20021;-69
2022/08/29 00:26:48;;;;;;;14.63;7.75;;;;;;;25.55;60.54;100242.13;5050068;28;20029;-68
2022/08/29 00:29:14;;;;;;;16.88;7.53;;;;;;;25.42;61.04;100238.97;5051004;28;20028;-68
2022/08/29 00:31:39;;;;;;;25.73;8.45;;;;;;;25.33;61.74;100242.72;5052336;28;20035;-71
2022/08/29 00:34:05;;;;;;;20.27;7.28;;;;;;;25.11;61.72;100234.50;5052197;28;20029;-68
2022/08/29 00:36:32;;;;;;;20.13;8.32;;;;;;;25.09;62.22;100240.75;5052229;28;20029;-69
2022/08/29 00:38:57;;;;;;;16.58;7.30;;;;;;;24.97;62.54;100239.28;5051883;28;20021;-69
2022/08/29 00:41:23;;;;;;;21.13;7.80;;;;;;;24.84;63.23;100238.75;5052207;28;20031;-69
2022/08/29 00:43:48;;;;;;;13.45;8.00;;;;;;;24.76;63.40;100245.97;5052016;28;20029;-72
2022/08/29 00:49:40;;;;;;;14.93;7.90;;;;;;;24.35;65.28;100254.84;5060696;22;20589;-69
2022/08/29 00:52:28;;;;;;;17.17;7.68;;;;;;;24.07;65.63;100207.16;5032429;28;20484;-69
2022/08/29 00:54:55;;;;;;;14.43;7.57;;;;;;;24.08;66.46;100227.34;5032247;28;20095;-70
2022/08/29 00:57:23;;;;;;;20.20;8.13;;;;;;;23.88;67.47;100226.00;5031819;28;20493;-70
2022/08/29 00:59:50;;;;;;;17.17;7.30;;;;;;;23.70;68.02;100205.31;5032054;28;20036;-70
2022/08/29 01:02:16;;;;;;;22.20;8.32;;;;;;;23.93;67.21;100244.38;5032227;28;20029;-70
2022/08/29 01:04:42;;;;;;;12.02;7.45;;;;;;;23.79;68.12;100241.13;5032188;28;20507;-70
2022/08/29 01:07:08;;;;;;;15.95;8.00;;;;;;;23.77;68.25;100232.41;5122102;22;20935;-70
2022/08/29 01:09:36;;;;;;;19.90;8.45;;;;;;;23.79;68.14;100238.50;5052204;28;20041;-69
2022/08/29 01:12:14;;;;;;;20.73;8.65;;;;;;;23.86;67.72;100234.84;5051733;28;20021;-70
2022/08/29 01:15:06;;;;;;;13.52;7.75;;;;;;;23.89;67.93;100242.69;5052216;28;20025;-69
2022/08/29 01:17:43;;;;;;;19.30;7.88;;;;;;;24.05;67.28;100246.75;5052170;28;20025;-70
2022/08/29 01:20:12;;;;;;;14.55;7.80;;;;;;;24.20;66.65;100242.91;5051761;28;20029;-70
2022/08/29 01:22:50;;;;;;;20.73;8.23;;;;;;;24.18;66.08;100206.91;5033207;28;20041;-69
2022/08/29 01:25:20;;;;;;;19.70;8.05;;;;;;;24.37;65.89;100226.69;5051677;28;20119;-70
2022/08/29 01:27:51;;;;;;;17.73;8.43;;;;;;;24.36;65.21;100227.56;5051789;28;20029;-69
2022/08/29 01:30:18;;;;;;;20.70;8.90;;;;;;;24.36;65.54;100239.88;5051684;28;20108;-69
2022/08/29 01:32:43;;;;;;;17.45;9.05;;;;;;;24.23;66.37;100242.81;5051583;28;20032;-69
2022/08/29 01:35:09;;;;;;;17.75;8.35;;;;;;;24.18;66.51;100249.13;5051837;28;20033;-70
2022/08/29 01:37:38;;;;;;;15.45;7.93;;;;;;;24.01;66.80;100238.94;5051545;28;20474;-69
2022/08/29 01:40:04;;;;;;;21.08;8.43;;;;;;;23.77;67.05;100232.41;5051446;28;20457;-69
2022/08/29 01:42:30;;;;;;;16.55;8.57;;;;;;;23.63;67.90;100248.50;5051545;28;20029;-69
2022/08/29 01:44:58;;;;;;;17.02;8.30;;;;;;;23.40;68.97;100242.81;5051304;28;20087;-69
2022/08/29 01:47:27;;;;;;;16.52;8.98;;;;;;;23.30;68.68;100249.13;5051199;28;20453;-69
2022/08/29 01:49:54;;;;;;;19.95;7.88;;;;;;;23.20;68.28;100235.31;5032593;28;20041;-69
2022/08/29 01:52:19;;;;;;;19.08;8.32;;;;;;;22.90;68.88;100206.00;5051403;28;20025;-69
2022/08/29 01:54:45;;;;;;;14.00;8.23;;;;;;;22.97;68.85;100240.94;5032657;28;20562;-69
2022/08/29 01:57:14;;;;;;;19.73;8.75;;;;;;;22.91;69.80;100248.97;5051168;28;20029;-69
2022/08/29 01:59:40;;;;;;;15.52;8.32;;;;;;;23.00;69.17;100243.50;5051210;28;20033;-69
2022/08/29 02:02:15;;;;;;;15.48;8.48;;;;;;;23.00;69.55;100248.78;5051083;28;20029;-69
2022/08/29 02:04:40;;;;;;;26.80;8.40;;;;;;;23.15;69.24;100249.41;5051056;28;20033;-67
2022/08/29 02:07:06;;;;;;;17.45;8.20;;;;;;;23.19;69.02;100243.22;5051128;28;20029;-67
2022/08/29 02:09:32;;;;;;;16.60;8.23;;;;;;;23.19;69.10;100249.38;5051017;28;20487;-70
2022/08/29 02:12:01;;;;;;;18.60;8.15;;;;;;;23.32;68.48;100251.75;5050974;28;20025;-69
2022/08/29 02:14:28;;;;;;;15.90;8.50;;;;;;;23.34;68.51;100244.69;5050895;28;20033;-67
2022/08/29 02:16:54;;;;;;;19.02;7.85;;;;;;;23.24;67.87;100207.13;5051103;28;20111;-67
2022/08/29 02:19:20;;;;;;;23.02;8.65;;;;;;;23.50;68.17;100250.53;5051019;28;20025;-67
2022/08/29 02:21:46;;;;;;;17.90;8.57;;;;;;;23.39;67.49;100224.38;5040497;28;20109;-67
2022/08/29 02:24:12;;;;;;;15.93;8.60;;;;;;;23.66;67.65;100257.19;5031513;28;20100;-67
2022/08/29 02:26:37;;;;;;;18.10;7.80;;;;;;;23.72;67.12;100267.63;5050732;28;20453;-67
2022/08/29 02:29:03;;;;;;;16.83;8.70;;;;;;;23.72;66.80;100243.03;5043666;28;20040;-70
2022/08/29 02:31:29;;;;;;;24.65;8.45;;;;;;;23.86;66.58;100248.91;5038761;28;20048;-71
2022/08/29 02:33:55;;;;;;;22.52;8.70;;;;;;;23.95;66.54;100252.25;5036176;28;20044;-69
2022/08/29 02:36:21;;;;;;;17.50;7.95;;;;;;;23.92;66.41;100247.06;5030532;28;20025;-69
2022/08/29 02:38:47;;;;;;;22.17;9.55;;;;;;;23.88;65.73;100252.34;5032862;28;20033;-70
2022/08/29 02:41:13;;;;;;;15.68;7.70;;;;;;;23.93;65.49;100257.56;5043218;28;20084;-68
2022/08/29 02:43:42;;;;;;;18.80;8.48;;;;;;;23.94;65.84;100272.50;5030116;28;20022;-72
2022/08/29 02:46:11;;;;;;;16.50;7.93;;;;;;;23.87;66.40;100263.78;5044827;28;20044;-69
2022/08/29 02:48:36;;;;;;;23.08;8.98;;;;;;;23.89;66.88;100266.41;5049339;28;20033;-71
2022/08/29 02:51:02;;;;;;;23.15;9.02;;;;;;;23.84;67.78;100269.16;5050009;28;20086;-70
2022/08/29 02:53:29;;;;;;;18.30;9.15;;;;;;;23.62;70.03;100239.72;5050029;28;20395;-70
2022/08/29 02:55:55;;;;;;;26.60;9.65;;;;;;;23.69;73.37;100266.81;5049725;28;20130;-70
2022/08/29 02:58:23;;;;;;;16.55;8.65;;;;;;;23.77;72.54;100270.16;5049705;28;20490;-70
2022/08/29 03:00:49;;;;;;;19.67;8.85;;;;;;;23.88;72.55;100276.06;5047243;28;20392;-70
2022/08/29 03:03:15;;;;;;;20.58;8.82;;;;;;;23.93;73.09;100278.66;5049127;28;20025;-70
2022/08/29 03:05:41;;;;;;;24.63;9.40;;;;;;;23.88;72.47;100283.13;5049718;28;20033;-69
2022/08/29 03:08:10;;;;;;;21.30;8.60;;;;;;;23.77;70.23;100278.06;5049771;28;20045;-69
2022/08/29 03:10:36;;;;;;;18.27;8.40;;;;;;;23.72;71.03;100272.91;5052752;28;20033;-70
2022/08/29 03:13:03;;;;;;;22.52;8.73;;;;;;;23.77;71.00;100285.13;5053480;28;20610;-70
2022/08/29 03:15:28;;;;;;;20.27;8.98;;;;;;;23.57;70.47;100281.97;5053047;28;20041;-69
2022/08/29 03:17:54;;;;;;;18.02;8.65;;;;;;;23.29;70.59;100280.78;5053674;28;20394;-66
2022/08/29 03:20:21;;;;;;;18.85;8.88;;;;;;;23.06;71.07;100267.09;5053593;28;20029;-70
2022/08/29 03:22:48;;;;;;;24.20;8.70;;;;;;;23.16;71.25;100282.78;5053281;28;20507;-69
2022/08/29 03:25:15;;;;;;;26.90;9.38;;;;;;;23.03;71.38;100280.34;5053311;28;20033;-70
2022/08/29 03:27:41;;;;;;;22.15;8.55;;;;;;;22.81;72.25;100292.13;5053369;28;20025;-70
2022/08/29 03:30:10;;;;;;;30.20;9.43;;;;;;;22.55;71.95;100257.44;5034799;28;20471;-70
2022/08/29 03:32:36;;;;;;;19.50;8.85;;;;;;;22.74;71.92;100292.22;5053133;28;20444;-70
2022/08/29 03:35:03;;;;;;;28.98;8.85;;;;;;;22.37;72.46;100255.97;5053169;28;20040;-68
2022/08/29 03:37:28;;;;;;;22.98;9.93;;;;;;;22.49;73.48;100302.25;5053170;28;20021;-71
2022/08/29 03:39:53;;;;;;;20.73;9.30;;;;;;;22.31;74.18;100303.38;5052978;28;20087;-70
2022/08/29 03:42:20;;;;;;;15.60;8.60;;;;;;;22.30;74.61;100301.63;5053227;28;20028;-68
2022/08/29 03:44:45;;;;;;;15.32;8.88;;;;;;;22.22;74.44;100296.47;5052492;28;20061;-70
2022/08/29 03:47:11;;;;;;;22.45;9.10;;;;;;;22.22;74.39;100293.84;5052826;28;20108;-67
2022/08/29 03:49:37;;;;;;;20.17;8.88;;;;;;;22.14;74.23;100296.59;5052843;28;20033;-68
2022/08/29 03:52:04;;;;;;;22.63;9.52;;;;;;;22.22;74.24;100293.84;5051183;28;20021;-67
2022/08/29 03:54:30;;;;;;;29.00;9.20;;;;;;;22.11;74.20;100286.09;5052629;28;20717;-70
2022/08/29 03:56:55;;;;;;;33.97;10.07;;;;;;;22.09;73.66;100282.66;5052879;28;20037;-69
2022/08/29 03:59:22;;;;;;;20.92;9.13;;;;;;;22.08;73.90;100296.69;5052776;28;20504;-69
2022/08/29 04:01:48;;;;;;;27.83;9.25;;;;;;;22.16;73.94;100303.56;5052669;28;20036;-75
2022/08/29 04:07:05;;;;;;;28.52;9.40;;;;;;;22.05;75.17;100315.09;5051308;28;20079;-70
2022/08/29 04:09:31;;;;;;;20.20;8.88;;;;;;;22.11;75.47;100319.44;5052047;28;20541;-68
2022/08/29 04:11:57;;;;;;;26.98;9.30;;;;;;;22.05;75.53;100325.63;5052098;28;20033;-71
2022/08/29 04:14:23;;;;;;;28.00;9.35;;;;;;;22.08;75.94;100320.34;5052469;28;20028;-68
2022/08/29 04:16:49;;;;;;;24.33;10.15;;;;;;;22.08;76.22;100322.06;5032143;28;20041;-71
2022/08/29 04:19:16;;;;;;;24.77;9.63;;;;;;;22.13;75.64;100323.78;5050088;28;20102;-72
2022/08/29 04:21:41;;;;;;;23.92;9.32;;;;;;;22.14;75.98;100319.38;5048071;28;20021;-68
2022/08/29 04:24:07;;;;;;;22.60;9.35;;;;;;;22.09;76.38;100311.56;5050593;28;20079;-67
2022/08/29 04:26:33;;;;;;;25.52;9.30;;;;;;;22.17;77.20;100323.72;5052341;28;20112;-68
2022/08/29 04:28:58;;;;;;;20.63;9.75;;;;;;;22.12;76.54;100303.63;5052108;28;20090;-69
2022/08/29 04:31:24;;;;;;;29.02;9.65;;;;;;;22.34;77.06;100313.84;5051967;28;20029;-70
2022/08/29 04:33:49;;;;;;;26.60;9.40;;;;;;;22.27;76.96;100312.22;5052198;28;20032;-68
2022/08/29 04:36:15;;;;;;;39.63;14.00;;;;;;;22.38;80.23;100312.06;5051986;28;20029;-69
2022/08/29 04:38:41;;;;;;;39.15;14.23;;;;;;;22.51;81.90;100316.25;5033285;28;20037;-69
2022/08/29 04:41:13;;;;;;;29.42;12.82;;;;;;;22.67;82.62;100318.66;5052177;28;20025;-68
2022/08/29 04:43:40;;;;;;;28.60;12.82;;;;;;;22.74;83.27;100318.56;5051395;28;20033;-68
2022/08/29 04:46:05;;;;;;;33.55;14.18;;;;;;;22.77;84.03;100322.91;5051998;28;20107;-71
2022/08/29 04:48:31;;;;;;;34.85;13.20;;;;;;;22.89;83.31;100317.44;5051803;28;20174;-71
2022/08/29 04:50:59;;;;;;;35.75;13.02;;;;;;;23.00;83.20;100317.22;5052190;28;20040;-72
2022/08/29 04:53:25;;;;;;;32.53;13.30;;;;;;;23.04;83.45;100310.16;5052035;28;20388;-70
2022/08/29 04:55:59;;;;;;;31.23;11.70;;;;;;;23.09;82.78;100314.47;5052180;28;20071;-68
2022/08/29 04:58:24;;;;;;;36.25;11.77;;;;;;;23.00;82.86;100314.59;5051681;28;20391;-71
2022/08/29 05:00:51;;;;;;;25.83;10.70;;;;;;;23.12;81.99;100324.06;5051851;28;20024;-69
2022/08/29 05:03:18;;;;;;;36.30;10.63;;;;;;;23.32;80.67;100321.09;5051653;28;20075;-74
2022/08/29 05:05:43;;;;;;;26.38;9.95;;;;;;;23.50;79.36;100322.53;5051810;28;20029;-71
2022/08/29 05:08:09;;;;;;;35.67;11.52;;;;;;;23.62;79.89;100323.22;5051386;28;20517;-69
2022/08/29 05:10:34;;;;;;;32.83;11.10;;;;;;;23.63;78.55;100323.16;5051703;28;20028;-71
2022/08/29 05:12:59;;;;;;;29.60;10.90;;;;;;;23.24;78.62;100265.94;5051633;28;20029;-67
2022/08/29 05:15:25;;;;;;;29.40;10.25;;;;;;;23.66;78.64;100314.34;5051420;28;20056;-70
2022/08/29 05:17:52;;;;;;;29.08;11.23;;;;;;;23.73;78.92;100327.34;5051244;28;20090;-70
2022/08/29 05:20:17;;;;;;;26.60;10.82;;;;;;;23.78;77.96;100313.22;5051140;28;20028;-74
2022/08/29 05:22:42;;;;;;;29.50;11.00;;;;;;;23.88;77.65;100336.72;5051450;28;20063;-67
2022/08/29 05:25:10;;;;;;;28.20;11.15;;;;;;;23.93;78.62;100338.44;5051280;28;20025;-72
2022/08/29 05:27:38;;;;;;;34.20;11.82;;;;;;;23.94;77.66;100333.13;5051100;28;20033;-74
2022/08/29 05:30:04;;;;;;;26.95;10.88;;;;;;;23.86;76.58;100312.19;5051027;28;20025;-68
2022/08/29 05:32:29;;;;;;;43.83;11.77;;;;;;;23.73;77.13;100318.59;5050871;28;20384;-69
2022/08/29 05:34:56;;;;;;;34.92;11.45;;;;;;;23.41;77.15;100284.06;5032552;28;20047;-67
2022/08/29 05:37:22;;;;;;;31.23;10.75;;;;;;;23.63;76.43;100322.28;5051224;28;20064;-68
2022/08/29 05:39:48;;;;;;;25.98;10.30;;;;;;;23.81;76.03;100329.81;5050990;28;20515;-72
2022/08/29 05:42:16;;;;;;;24.70;9.55;;;;;;;23.98;74.48;100328.66;5051024;28;20479;-71
2022/08/29 05:44:41;;;;;;;31.67;10.82;;;;;;;23.78;73.91;100271.91;5051062;28;20119;-70
2022/08/29 05:47:09;;;;;;;37.63;10.15;;;;;;;24.18;73.38;100322.97;5051311;28;20071;-70
2022/08/29 05:49:39;;;;;;;31.45;9.82;;;;;;;24.27;73.57;100325.38;5050910;28;20622;-70
2022/08/29 05:52:06;;;;;;;32.78;10.18;;;;;;;24.33;72.88;100319.97;5051015;28;20029;-72
2022/08/29 05:54:34;;;;;;;31.30;9.25;;;;;;;24.38;72.25;100314.59;5050869;28;20108;-69
2022/08/29 05:56:59;;;;;;;27.27;10.02;;;;;;;24.39;73.01;100329.53;5050210;28;20044;-70
2022/08/29 05:59:25;;;;;;;30.80;9.18;;;;;;;24.39;72.81;100335.66;5050449;28;20029;-72
2022/08/29 06:01:50;;;;;;;26.30;9.30;;;;;;;24.39;72.20;100313.72;5050916;28;20071;-69
2022/08/29 06:04:17;;;;;;;27.83;9.55;;;;;;;24.45;71.91;100299.47;5050480;28;20087;-70
2022/08/29 06:06:43;;;;;;;26.45;9.57;;;;;;;24.74;71.46;100337.56;5050577;28;20075;-69
2022/08/29 06:09:28;;;;;;;33.90;9.18;;;;;;;24.77;71.74;100338.34;5027899;28;20132;-68
2022/08/29 06:11:56;;;;;;;27.02;9.48;;;;;;;24.81;71.26;100332.09;5028256;28;20037;-70
2022/08/29 06:14:22;;;;;;;25.90;9.85;;;;;;;24.82;71.42;100330.31;5028274;28;20518;-70
2022/08/29 06:16:47;;;;;;;22.27;8.80;;;;;;;24.93;71.26;100341.47;5028255;28;20072;-71
2022/08/29 06:19:13;;;;;;;26.30;9.25;;;;;;;25.07;70.12;100327.06;5027995;28;20033;-68
2022/08/29 06:21:38;;;;;;;27.17;9.55;;;;;;;25.22;69.65;100331.09;5028059;28;20091;-70
2022/08/29 06:24:05;;;;;;;26.65;9.20;;;;;;;25.20;70.15;100321.44;5028226;28;20045;-71
2022/08/29 06:26:30;;;;;;;21.27;8.63;;;;;;;25.15;69.92;100319.81;5028039;28;20034;-70
2022/08/29 06:28:56;;;;;;;28.33;8.88;;;;;;;25.22;69.77;100334.59;5027961;28;20045;-71
2022/08/29 06:31:25;;;;;;;23.20;10.25;;;;;;;25.22;70.85;100336.38;5028212;28;20604;-68
2022/08/29 06:33:52;;;;;;;29.63;9.52;;;;;;;25.25;70.15;100339.81;5027965;28;20446;-70
2022/08/29 06:36:18;;;;;;;30.17;8.88;;;;;;;25.17;69.08;100300.38;5028174;28;20033;-71
2022/08/29 06:38:43;;;;;;;22.45;9.38;;;;;;;25.34;68.79;100328.97;5028038;28;20037;-70
2022/08/29 06:41:14;;;;;;;30.80;9.15;;;;;;;25.53;70.41;100347.03;5045226;28;20037;-71
2022/08/29 06:43:40;;;;;;;22.00;9.38;;;;;;;25.44;68.46;100334.94;5050690;28;20025;-70
2022/08/29 06:46:07;;;;;;;31.88;9.30;;;;;;;25.55;70.16;100334.63;5054411;28;20036;-73
2022/08/29 06:48:33;;;;;;;25.85;9.73;;;;;;;25.60;69.25;100338.03;5054435;28;20025;-68
2022/08/29 06:51:02;;;;;;;23.60;9.02;;;;;;;25.58;69.95;100331.03;5054177;28;20045;-70
2022/08/29 06:53:28;;;;;;;;;;;;;;;25.60;68.39;100342.47;5054534;28;20029;-70
2022/08/29 06:55:54;;;;;;;30.42;9.10;;;;;;;25.70;69.00;100327.22;5053893;28;19976;-68
2022/08/29 06:58:20;;;;;;;23.95;8.88;;;;;;;25.81;66.82;100331.25;5053242;28;20679;-68
2022/08/29 07:00:46;;;;;;;27.50;8.77;;;;;;;25.90;66.09;100338.06;5054171;28;20468;-70
2022/08/29 07:03:12;;;;;;;23.67;8.80;;;;;;;26.05;67.13;100341.19;5054114;28;20411;-70
2022/08/29 07:05:38;;;;;;;34.80;8.80;;;;;;;26.14;65.96;100335.63;5053893;28;20079;-69
2022/08/29 07:08:03;;;;;;;19.42;7.95;;;;;;;26.10;65.09;100305.75;5053180;28;20051;-68
2022/08/29 07:10:29;;;;;;;25.73;8.20;;;;;;;26.41;64.17;100338.38;5053727;28;20021;-68
2022/08/29 07:12:54;;;;;;;32.25;8.85;;;;;;;26.53;63.72;100332.69;5053788;28;20439;-69
2022/08/29 07:15:22;;;;;;;27.08;8.65;;;;;;;26.62;63.24;100342.97;5052582;28;20056;-67
2022/08/29 07:17:48;;;;;;;24.27;8.13;;;;;;;26.71;61.79;100341.81;5053721;28;20029;-70
2022/08/29 07:20:15;;;;;;;31.35;8.73;;;;;;;26.84;63.18;100342.31;5053682;28;20079;-69
2022/08/29 07:22:41;;;;;;;19.65;8.70;;;;;;;27.01;61.71;100338.25;5053481;28;20029;-74
2022/08/29 07:25:09;;;;;;;23.35;7.95;;;;;;;26.92;61.55;100326.19;5053169;28;20025;-68
2022/08/29 07:27:35;;;;;;;23.98;8.95;;;;;;;26.99;63.29;100322.38;5053600;28;20029;-67
2022/08/29 07:30:01;;;;;;;21.98;8.15;;;;;;;27.11;61.20;100339.66;5053349;28;20384;-67
2022/08/29 07:32:27;;;;;;;23.95;9.07;;;;;;;27.16;60.57;100332.44;5053438;28;20503;-70
2022/08/29 07:34:53;;;;;;;21.00;8.60;;;;;;;27.34;62.28;100340.66;5053385;28;20498;-70
2022/08/29 07:37:19;;;;;;;28.25;9.45;;;;;;;27.47;60.74;100336.69;5053328;28;20045;-70
2022/08/29 07:39:44;;;;;;;24.65;8.18;;;;;;;27.47;60.70;100317.28;5053313;28;20020;-70
2022/08/29 07:42:10;;;;;;;22.05;8.23;;;;;;;27.75;60.28;100336.56;5053457;28;20602;-74
2022/08/29 07:44:35;;;;;;;22.85;8.43;;;;;;;27.79;58.19;100341.75;5053223;28;20495;-70
2022/08/29 07:47:01;;;;;;;27.60;8.75;;;;;;;27.73;58.38;100343.69;5053265;28;20098;-72
2022/08/29 07:49:29;;;;;;;20.08;8.40;;;;;;;27.81;59.86;100339.91;5053013;28;20385;-68
2022/08/29 07:51:55;;;;;;;24.95;8.57;;;;;;;27.78;59.82;100335.59;5052805;28;20548;-70
2022/08/29 07:54:21;;;;;;;27.60;9.25;;;;;;;27.75;57.99;100331.25;5051792;28;20029;-70
2022/08/29 07:56:49;;;;;;;18.88;8.02;;;;;;;27.67;58.37;100335.13;5052853;28;20116;-67
2022/08/29 07:59:16;;;;;;;20.88;8.25;;;;;;;27.65;58.68;100331.66;5052984;28;20021;-69
2022/08/29 08:01:42;;;;;;;25.67;9.07;;;;;;;27.66;58.80;100328.06;5052793;28;20118;-70
2022/08/29 08:04:08;;;;;;;23.83;8.50;;;;;;;27.60;57.58;100329.16;5052817;28;20102;-67
2022/08/29 08:06:35;;;;;;;23.52;8.02;;;;;;;27.54;57.30;100332.91;5052630;28;20075;-70
2022/08/29 08:09:01;;;;;;;19.25;8.43;;;;;;;27.45;57.14;100314.66;5052969;28;20045;-67
2022/08/29 08:11:26;;;;;;;26.52;8.57;;;;;;;27.60;59.68;100332.69;5053130;28;20044;-70
2022/08/29 08:13:54;;;;;;;23.58;8.90;;;;;;;27.60;58.12;100326.50;5052677;28;20040;-67
2022/08/29 08:16:21;;;;;;;19.77;8.32;;;;;;;27.46;58.10;100334.09;5052633;28;20031;-70
2022/08/29 08:18:48;;;;;;;25.95;8.80;;;;;;;27.50;58.49;100341.88;5052514;28;20110;-70
2022/08/29 08:21:14;;;;;;;21.42;8.93;;;;;;;27.52;56.96;100326.78;5052467;28;20033;-67
2022/08/29 08:23:40;;;;;;;21.75;8.20;;;;;;;27.69;55.82;100333.25;5052377;28;20411;-68
2022/08/29 08:26:07;;;;;;;21.73;8.90;;;;;;;27.76;57.40;100305.59;5052384;28;20027;-67
2022/08/29 08:28:33;;;;;;;19.92;8.88;;;;;;;28.12;59.95;100333.47;5052352;28;20467;-69
2022/08/29 08:30:59;;;;;;;20.13;7.80;;;;;;;28.23;55.90;100332.13;5052425;28;20033;-71
2022/08/29 08:33:24;;;;;;;23.02;8.30;;;;;;;28.47;57.36;100329.44;5051619;28;20032;-70
2022/08/29 08:35:50;;;;;;;20.50;8.43;;;;;;;28.60;53.90;100334.25;5052312;28;20029;-70
2022/08/29 08:38:17;;;;;;;16.63;8.18;;;;;;;28.72;51.82;100329.34;5051879;28;20110;-69
2022/08/29 08:40:47;;;;;;;19.58;8.05;;;;;;;28.68;51.70;100305.63;5051984;28;20033;-74
2022/08/29 08:43:17;;;;;;;19.40;8.23;;;;;;;28.91;51.66;100331.22;5051494;28;20406;-69
2022/08/29 08:45:43;;;;;;;13.93;8.02;;;;;;;28.98;50.96;100321.22;5033174;28;20098;-71
2022/08/29 08:48:21;;;;;;;18.35;7.72;;;;;;;29.23;50.19;100314.84;5051489;28;20033;-70
2022/08/29 08:50:58;;;;;;;18.98;7.55;;;;;;;29.39;50.63;100318.59;5051577;28;20071;-70
2022/08/29 08:53:31;;;;;;;17.50;7.38;;;;;;;29.59;48.55;100316.84;5052140;28;20044;-70
2022/08/29 08:56:00;;;;;;;15.40;7.30;;;;;;;29.81;48.16;100319.41;5050638;28;20394;-69
2022/08/29 08:58:25;;;;;;;27.25;7.80;;;;;;;29.93;48.29;100316.19;5049916;28;20419;-69
2022/08/29 09:01:03;;;;;;;20.40;7.68;;;;;;;30.01;47.74;100315.84;5050974;28;20025;-69
2022/08/29 09:04:01;;;;;;;22.10;8.00;;;;;;;30.15;49.90;100313.38;5051122;28;20048;-69
2022/08/29 09:06:36;;;;;;;22.23;8.13;;;;;;;30.28;47.37;100312.78;5049826;28;20108;-69
2022/08/29 09:09:30;;;;;;;22.50;8.00;;;;;;;30.41;47.80;100305.94;5051176;28;20542;-69
2022/08/29 09:12:12;;;;;;;17.13;7.32;;;;;;;30.64;50.32;100301.31;5040309;28;20034;-69
2022/08/29 09:15:01;;;;;;;20.58;7.35;;;;;;;30.60;48.18;100297.09;5050779;28;20578;-69
2022/08/29 09:18:19;;;;;;;17.70;7.55;;;;;;;30.65;48.41;100303.91;5050495;28;20434;-69
2022/08/29 09:20:45;;;;;;;18.00;7.55;;;;;;;30.67;45.62;100271.88;4903744;29;20036;-69
2022/08/29 09:23:17;;;;;;;22.85;7.80;;;;;;;30.94;47.80;100292.72;4903869;29;20619;-69
2022/08/29 09:25:43;;;;;;;16.45;6.93;;;;;;;31.05;48.99;100281.50;4903229;29;20041;-69
2022/08/29 09:28:08;;;;;;;17.73;7.07;;;;;;;31.07;44.31;100251.19;4911681;29;20031;-69
2022/08/29 09:30:36;;;;;;;14.35;6.95;;;;;;;31.28;45.64;100251.00;4904144;29;20067;-69
2022/08/29 09:33:15;;;;;;;15.90;7.65;;;;;;;31.57;42.71;100278.78;4903534;29;20476;-69
2022/08/29 09:35:46;;;;;;;18.50;7.93;;;;;;;31.70;42.40;100286.16;4901680;29;20123;-70
2022/08/29 09:38:17;;;;;;;19.70;7.65;;;;;;;31.97;42.03;100278.41;4901444;29;20036;-70
2022/08/29 09:41:00;;;;;;;18.45;7.10;;;;;;;32.12;43.14;100275.84;4902205;29;20031;-70
2022/08/29 09:43:43;;;;;;;23.10;7.80;;;;;;;31.94;42.37;100281.28;4894397;29;20060;-70
2022/08/29 09:46:19;;;;;;;18.10;7.82;;;;;;;31.93;42.76;100251.03;4894856;29;20035;-69
2022/08/29 09:49:11;;;;;;;16.80;7.40;;;;;;;32.09;41.23;100283.06;4892318;29;20040;-70
2022/08/29 09:51:45;;;;;;;19.70;6.75;;;;;;;32.17;39.31;100265.75;4904833;29;20040;-69
2022/08/29 09:54:26;;;;;;;24.42;7.63;;;;;;;32.49;45.06;100273.75;4900539;29;20596;-70
2022/08/29 09:56:57;;;;;;;22.98;7.40;;;;;;;32.73;41.02;100266.13;4959568;28;20041;-68
2022/08/29 09:59:36;;;;;;;22.60;7.53;;;;;;;32.81;38.36;100247.84;5030904;28;20017;-70
2022/08/29 10:02:16;;;;;;;16.37;6.93;;;;;;;33.16;35.44;100266.25;5029644;28;20033;-70
2022/08/29 10:04:44;;;;;;;15.80;6.07;;;;;;;33.21;36.32;100236.50;5031547;28;20063;-70
2022/08/29 10:07:16;;;;;;;21.08;6.70;;;;;;;33.36;37.75;100257.00;5029775;28;20057;-69
2022/08/29 10:09:54;;;;;;;18.25;6.90;;;;;;;33.49;38.50;100257.09;5029335;28;20017;-70
2022/08/29 10:12:30;;;;;;;20.95;6.82;;;;;;;33.49;36.10;100253.56;5010641;28;20038;-70
2022/08/29 10:15:02;;;;;;;15.65;6.90;;;;;;;33.51;35.10;100225.75;5030549;28;20029;-71
2022/08/29 10:20:38;;;;;;;20.50;6.80;;;;;;;33.94;33.16;100248.94;5029088;28;20078;-70
2022/08/29 10:23:44;;;;;;;19.95;6.80;;;;;;;34.12;33.81;100243.34;5029284;28;20033;-69
2022/08/29 10:26:15;;;;;;;21.75;6.97;;;;;;;34.31;36.75;100243.84;4987177;28;20524;-71
2022/08/29 10:28:48;;;;;;;21.85;6.53;;;;;;;34.14;37.00;100214.63;4986717;28;20128;-71
2022/08/29 10:31:26;;;;;;;19.52;6.85;;;;;;;34.32;35.09;100236.66;4989987;28;20066;-70
2022/08/29 10:33:57;;;;;;;19.65;6.97;;;;;;;34.14;36.80;100242.25;4987716;28;20046;-69
2022/08/29 10:36:31;;;;;;;20.98;7.40;;;;;;;34.15;35.63;100230.59;4987423;28;20401;-70
2022/08/29 10:39:20;;;;;;;18.10;6.45;;;;;;;34.41;34.94;100228.03;4990303;28;20113;-70
2022/08/29 10:41:55;;;;;;;;;;;;;;;34.55;32.75;100224.41;4988201;28;20209;-70
2022/08/29 10:45:01;;;;;;;22.13;6.80;;;;;;;34.79;34.23;100223.72;4987697;28;19914;-69
2022/08/29 10:47:39;;;;;;;22.95;7.00;;;;;;;35.01;34.49;100222.25;4948585;29;20055;-69
2022/08/29 10:50:23;;;;;;;19.08;5.72;;;;;;;35.08;30.89;100200.25;4948350;29;20043;-69
2022/08/29 10:53:15;;;;;;;26.15;6.85;;;;;;;35.35;30.83;100222.56;4948738;29;20058;-68
2022/08/29 10:55:59;;;;;;;20.42;6.82;;;;;;;35.43;30.16;100209.44;4941607;29;20122;-69
2022/08/29 10:58:40;;;;;;;21.75;6.57;;;;;;;35.56;29.66;100204.91;4929940;29;20130;-70
2022/08/29 11:01:22;;;;;;;22.00;6.45;;;;;;;35.74;32.64;100208.09;4930168;29;20043;-71
2022/08/29 11:04:15;;;;;;;20.65;6.45;;;;;;;35.83;31.24;100195.81;4982058;28;20429;-68
2022/08/29 11:06:50;;;;;;;22.27;7.00;;;;;;;35.76;31.23;100181.13;4986829;28;20054;-70
2022/08/29 11:09:24;;;;;;;21.08;6.93;;;;;;;35.74;28.86;100164.25;4986674;28;20150;-69
2022/08/29 11:12:43;;;;;;;20.67;6.47;;;;;;;35.99;27.75;100192.03;4986750;28;20065;-67
2022/08/29 11:15:18;;;;;;;16.33;6.10;;;;;;;36.05;27.97;100191.56;4948155;29;20047;-70
2022/08/29 11:17:52;;;;;;;18.77;6.68;;;;;;;36.02;26.10;100170.31;4948059;29;20129;-69
2022/08/29 11:20:23;;;;;;;17.25;6.22;;;;;;;36.08;26.29;100165.31;4948070;29;20035;-69
2022/08/29 11:23:00;;;;;;;19.17;6.32;;;;;;;36.28;25.92;100163.81;4952832;28;20050;-70
2022/08/29 11:25:26;;;;;;;22.83;6.65;;;;;;;36.34;30.08;100158.94;4986368;28;20511;-70
2022/08/29 11:28:10;;;;;;;20.95;6.38;;;;;;;36.47;27.74;100162.44;4987405;28;20501;-69
2022/08/29 11:30:52;;;;;;;21.15;6.05;;;;;;;36.57;26.31;100163.41;4986440;28;20274;-69
2022/08/29 11:33:35;;;;;;;19.88;6.57;;;;;;;36.59;26.01;100158.78;4990612;28;20400;-69
2022/08/29 11:36:26;;;;;;;23.63;6.45;;;;;;;36.51;26.69;100160.34;4990047;28;20046;-69